Time;durP1;ratioP1;P1;durP2;ratioP2;P2;SDS_P1;SDS_P2;PMS_P1;PMS_P2;Temp;Humidity;BMP_temperature;BMP_pressure;BME280_temperature;BME280_humidity;BME280_pressure;Samples;Min_cycle;Max_cycle;Signal;HPM_P1;HPM_P2
2023/02/03 00:01:57;;;;;;;6.97;4.47;;;10.40;99.90;;;;;;4842728;29;21372;-80
2023/02/03 00:04:40;;;;;;;6.60;3.87;;;10.30;99.90;;;;;;4857853;29;20468;-80
2023/02/03 00:07:17;;;;;;;8.17;4.20;;;10.40;99.90;;;;;;4845161;29;20845;-80
2023/02/03 00:09:47;;;;;;;6.80;4.27;;;10.50;99.90;;;;;;4845426;29;20564;-79
2023/02/03 00:12:16;;;;;;;5.77;4.40;;;10.40;99.90;;;;;;4843743;29;20485;-80
2023/02/03 00:14:51;;;;;;;10.30;4.80;;;10.40;99.90;;;;;;4853809;29;20480;-79
2023/02/03 00:17:24;;;;;;;7.67;4.23;;;10.40;99.90;;;;;;4838890;29;20469;-79
2023/02/03 00:19:56;;;;;;;6.87;4.10;;;10.40;99.90;;;;;;4855277;29;20964;-79
2023/02/03 00:22:29;;;;;;;4.90;4.20;;;10.30;99.90;;;;;;4833616;29;22489;-79
2023/02/03 00:25:03;;;;;;;7.50;4.60;;;10.30;99.90;;;;;;4842707;29;20497;-79
2023/02/03 00:27:38;;;;;;;6.57;4.43;;;10.40;99.90;;;;;;4835546;29;20473;-79
2023/02/03 00:30:17;;;;;;;5.87;4.20;;;10.30;99.90;;;;;;4848684;29;20480;-78
2023/02/03 00:32:48;;;;;;;5.77;4.70;;;10.40;99.90;;;;;;4859740;29;20512;-79
2023/02/03 00:35:19;;;;;;;7.90;3.90;;;10.30;99.90;;;;;;4855603;29;20537;-79
2023/02/03 00:38:00;;;;;;;7.73;4.20;;;10.40;99.90;;;;;;4850923;29;20496;-79
2023/02/03 00:40:29;;;;;;;5.03;3.43;;;10.40;99.90;;;;;;4844257;29;20476;-81
2023/02/03 00:42:56;;;;;;;6.10;3.43;;;10.30;99.90;;;;;;4844243;29;20529;-80
2023/02/03 00:45:22;;;;;;;3.67;3.30;;;10.30;99.90;;;;;;4846073;29;20576;-79
2023/02/03 00:47:49;;;;;;;3.97;3.47;;;10.30;99.90;;;;;;4847568;29;20852;-80
2023/02/03 00:50:16;;;;;;;7.83;3.53;;;10.40;99.90;;;;;;4848329;29;20471;-81
2023/02/03 00:52:43;;;;;;;3.93;3.10;;;10.40;99.90;;;;;;4849549;29;20516;-80
2023/02/03 00:55:10;;;;;;;5.50;2.90;;;10.40;99.90;;;;;;4846325;29;20454;-78
2023/02/03 00:57:37;;;;;;;6.27;3.40;;;10.40;99.90;;;;;;4849639;29;20480;-79
2023/02/03 01:00:05;;;;;;;10.07;4.30;;;10.40;99.90;;;;;;4861456;29;20473;-80
2023/02/03 01:02:32;;;;;;;6.23;2.90;;;10.40;99.90;;;;;;4849904;29;20489;-81
2023/02/03 01:04:59;;;;;;;3.90;3.13;;;10.40;99.90;;;;;;4849777;29;20456;-80
2023/02/03 01:07:29;;;;;;;12.37;3.23;;;10.50;99.90;;;;;;4850161;29;20489;-79
2023/02/03 01:09:56;;;;;;;5.93;3.13;;;10.40;99.90;;;;;;4853283;29;20540;-80
2023/02/03 01:12:23;;;;;;;5.97;3.47;;;10.40;99.90;;;;;;4848027;29;20493;-79
2023/02/03 01:14:50;;;;;;;5.47;3.03;;;10.40;99.90;;;;;;4862142;29;20496;-80
2023/02/03 01:17:16;;;;;;;9.07;3.33;;;10.40;99.90;;;;;;4848311;29;20470;-80
2023/02/03 01:19:43;;;;;;;5.83;2.90;;;10.40;99.90;;;;;;4847804;29;20468;-79
2023/02/03 01:22:10;;;;;;;5.00;2.80;;;10.40;99.90;;;;;;4863297;29;20503;-81
2023/02/03 01:24:37;;;;;;;8.10;3.50;;;10.40;99.90;;;;;;4860176;29;20464;-78
2023/02/03 01:27:05;;;;;;;5.67;3.13;;;10.40;99.90;;;;;;4848084;29;20469;-81
2023/02/03 01:29:32;;;;;;;4.40;2.83;;;10.50;99.90;;;;;;4848349;29;20468;-79
2023/02/03 01:31:59;;;;;;;4.17;3.40;;;10.50;99.90;;;;;;4847375;29;20481;-80
2023/02/03 01:34:26;;;;;;;5.27;2.80;;;10.40;99.90;;;;;;4847061;29;20472;-81
2023/02/03 01:36:52;;;;;;;6.20;2.80;;;10.40;99.90;;;;;;4847604;29;20453;-80
2023/02/03 01:39:19;;;;;;;5.60;2.70;;;10.40;99.90;;;;;;4847885;29;20476;-79
2023/02/03 01:41:46;;;;;;;5.60;2.60;;;10.50;99.90;;;;;;4852012;29;20473;-80
2023/02/03 01:44:39;;;;;;;4.03;2.70;;;10.50;99.90;;;;;;4853160;29;20484;-80
2023/02/03 01:47:43;;;;;;;4.03;2.30;;;10.50;99.90;;;;;;4853299;29;20461;-80
2023/02/03 01:50:33;;;;;;;9.70;2.67;;;10.40;99.90;;;;;;4794274;29;20509;-81
2023/02/03 01:53:03;;;;;;;5.10;2.67;;;10.50;99.90;;;;;;4852276;29;20484;-80
2023/02/03 01:55:37;;;;;;;4.50;2.83;;;10.50;99.90;;;;;;4855252;29;20521;-79
2023/02/03 01:58:12;;;;;;;3.97;2.27;;;10.50;99.90;;;;;;4854754;29;20484;-80
2023/02/03 02:00:39;;;;;;;4.20;2.40;;;10.50;99.90;;;;;;4873122;29;20440;-79
2023/02/03 02:03:07;;;;;;;6.93;2.70;;;10.50;99.90;;;;;;4863207;29;20485;-79
2023/02/03 02:05:59;;;;;;;7.93;2.70;;;10.50;99.90;;;;;;4854855;29;20470;-80
2023/02/03 02:08:27;;;;;;;6.47;2.60;;;10.40;99.90;;;;;;4865427;29;20848;-81
2023/02/03 02:10:54;;;;;;;3.77;2.07;;;10.40;99.90;;;;;;4865834;29;20492;-80
2023/02/03 02:13:22;;;;;;;8.33;3.07;;;10.50;99.90;;;;;;4854946;29;20488;-78
2023/02/03 02:16:34;;;;;;;3.77;2.10;;;10.40;99.90;;;;;;4853099;29;21415;-79
2023/02/03 02:19:37;;;;;;;3.07;2.00;;;10.50;99.90;;;;;;4853025;29;20461;-79
2023/02/03 02:22:18;;;;;;;5.43;2.07;;;10.50;99.90;;;;;;4852266;29;20489;-80
2023/02/03 02:25:06;;;;;;;6.00;3.00;;;10.50;99.90;;;;;;4850567;29;20479;-79
2023/02/03 02:27:42;;;;;;;5.50;2.40;;;10.50;99.90;;;;;;4853463;29;20457;-81
2023/02/03 02:30:53;;;;;;;6.97;2.53;;;10.50;99.90;;;;;;4864616;29;21318;-80
2023/02/03 02:33:27;;;;;;;2.40;2.20;;;10.50;99.90;;;;;;4852465;29;20481;-80
2023/02/03 02:35:56;;;;;;;4.20;2.20;;;10.50;99.90;;;;;;4853329;29;20462;-79
2023/02/03 02:38:36;;;;;;;3.93;2.10;;;10.50;99.90;;;;;;4851469;29;20465;-79
2023/02/03 02:41:25;;;;;;;3.07;2.23;;;10.50;99.90;;;;;;4854711;29;20464;-79
2023/02/03 02:44:06;;;;;;;5.70;2.30;;;10.50;99.90;;;;;;4853151;29;20496;-79
2023/02/03 02:46:57;;;;;;;5.20;2.53;;;10.50;99.90;;;;;;4867504;29;20517;-80
2023/02/03 02:49:53;;;;;;;5.37;3.20;;;10.40;99.90;;;;;;4853546;29;20457;-80
2023/02/03 02:52:22;;;;;;;4.30;2.30;;;10.40;99.90;;;;;;4852599;29;20541;-80
2023/02/03 02:54:53;;;;;;;3.67;2.33;;;10.40;99.90;;;;;;4849540;29;20484;-81
2023/02/03 02:57:24;;;;;;;5.63;2.73;;;10.50;99.90;;;;;;4850261;29;20477;-78
2023/02/03 02:59:53;;;;;;;5.27;2.20;;;10.50;99.90;;;;;;4851951;29;20477;-79
2023/02/03 03:02:20;;;;;;;4.40;2.67;;;10.50;99.90;;;;;;4863266;29;20485;-80
2023/02/03 03:04:49;;;;;;;5.37;2.17;;;10.40;99.90;;;;;;4864301;29;21007;-80
2023/02/03 03:07:23;;;;;;;5.17;2.60;;;10.40;99.90;;;;;;4847926;29;20830;-79
2023/02/03 03:09:53;;;;;;;5.93;2.07;;;10.40;99.90;;;;;;4864888;29;20534;-78
2023/02/03 03:12:30;;;;;;;5.87;2.57;;;10.50;99.90;;;;;;4862698;29;20499;-79
2023/02/03 03:15:05;;;;;;;5.00;2.97;;;10.40;99.90;;;;;;4849762;29;20469;-80
2023/02/03 03:17:38;;;;;;;4.33;2.30;;;10.50;99.90;;;;;;4862776;29;20461;-80
2023/02/03 03:20:11;;;;;;;4.93;2.50;;;10.50;99.90;;;;;;4848774;29;20929;-78
2023/02/03 03:22:46;;;;;;;8.03;3.10;;;10.50;99.90;;;;;;4849296;29;20491;-80
2023/02/03 03:25:17;;;;;;;6.10;2.40;;;10.50;99.90;;;;;;4849314;29;20457;-79
2023/02/03 03:27:49;;;;;;;8.03;3.77;;;10.40;99.90;;;;;;4850124;29;20461;-80
2023/02/03 03:30:24;;;;;;;3.10;2.53;;;10.40;99.90;;;;;;4847627;29;20470;-80
2023/02/03 03:32:52;;;;;;;7.80;2.60;;;10.40;99.90;;;;;;4848001;29;20499;-80
2023/02/03 03:35:19;;;;;;;4.40;2.50;;;10.40;99.90;;;;;;4852274;29;20476;-80
2023/02/03 03:37:57;;;;;;;6.43;2.50;;;10.40;99.90;;;;;;4849818;29;20553;-80
2023/02/03 03:40:37;;;;;;;5.80;2.57;;;10.40;99.90;;;;;;4848481;29;20478;-79
2023/02/03 03:43:15;;;;;;;6.23;2.90;;;10.50;99.90;;;;;;4848608;29;20529;-79
2023/02/03 03:45:57;;;;;;;6.97;3.43;;;10.40;99.90;;;;;;4848944;29;20493;-80
2023/02/03 03:48:33;;;;;;;4.43;2.70;;;10.50;99.90;;;;;;4849651;29;20465;-79
2023/02/03 03:51:05;;;;;;;2.70;2.00;;;10.50;99.90;;;;;;4849257;29;20558;-79
2023/02/03 03:53:35;;;;;;;4.63;2.40;;;10.40;99.90;;;;;;4851926;29;20485;-80
2023/02/03 03:56:05;;;;;;;5.10;2.70;;;10.50;99.90;;;;;;4845717;29;20477;-79
2023/02/03 03:58:33;;;;;;;6.27;2.33;;;10.50;99.90;;;;;;4864378;29;20484;-80
2023/02/03 04:01:04;;;;;;;10.70;3.40;;;10.50;99.90;;;;;;4864314;29;20559;-81
2023/02/03 04:03:45;;;;;;;3.73;2.70;;;10.50;99.90;;;;;;4851353;29;20528;-80
2023/02/03 04:06:12;;;;;;;6.03;2.80;;;10.40;99.90;;;;;;4849299;29;20463;-81
2023/02/03 04:08:40;;;;;;;5.90;3.17;;;10.40;99.90;;;;;;4849495;29;20465;-79
2023/02/03 04:11:07;;;;;;;5.37;2.90;;;10.50;99.90;;;;;;4868067;29;20469;-80
2023/02/03 04:13:34;;;;;;;3.77;2.10;;;10.40;99.90;;;;;;4852596;29;20496;-78
2023/02/03 04:16:02;;;;;;;5.63;2.77;;;10.50;99.90;;;;;;4849853;29;20466;-79
2023/02/03 04:18:29;;;;;;;6.90;2.83;;;10.50;99.90;;;;;;4853033;29;20482;-80
2023/02/03 04:20:56;;;;;;;4.40;2.40;;;10.40;99.90;;;;;;4863730;29;20557;-79
2023/02/03 04:23:23;;;;;;;5.20;2.40;;;10.40;99.90;;;;;;4849530;29;20513;-80
2023/02/03 04:25:50;;;;;;;7.23;3.60;;;10.40;99.90;;;;;;4849642;29;20898;-79
2023/02/03 04:28:17;;;;;;;4.10;2.77;;;10.40;99.90;;;;;;4849193;29;20492;-78
2023/02/03 04:30:45;;;;;;;5.40;2.33;;;10.60;99.90;;;;;;4854183;29;20458;-79
2023/02/03 04:33:12;;;;;;;2.97;2.30;;;10.50;99.90;;;;;;4870755;29;20520;-79
2023/02/03 04:35:39;;;;;;;7.50;2.70;;;10.50;99.90;;;;;;4855527;29;20999;-78
2023/02/03 04:38:06;;;;;;;4.43;2.33;;;10.50;99.90;;;;;;4849683;29;20493;-78
2023/02/03 04:40:33;;;;;;;4.67;2.77;;;10.50;99.90;;;;;;4847966;29;20579;-80
2023/02/03 04:43:06;;;;;;;3.23;2.50;;;10.50;99.90;;;;;;4848625;29;20484;-79
2023/02/03 04:45:33;;;;;;;4.13;2.47;;;10.50;99.90;;;;;;4848269;29;20461;-81
2023/02/03 04:48:00;;;;;;;7.50;2.60;;;10.50;99.90;;;;;;4849577;29;20483;-80
2023/02/03 04:50:27;;;;;;;3.47;2.30;;;10.50;99.90;;;;;;4848199;29;21051;-78
2023/02/03 04:52:54;;;;;;;8.00;2.90;;;10.50;99.90;;;;;;4847482;29;20477;-78
2023/02/03 04:55:21;;;;;;;10.10;2.70;;;10.40;99.90;;;;;;4838032;29;20493;-79
2023/02/03 04:57:57;;;;;;;5.27;2.97;;;10.50;99.90;;;;;;4831589;29;21115;-79
2023/02/03 05:00:25;;;;;;;3.70;2.00;;;10.50;99.90;;;;;;4844574;29;20476;-80
2023/02/03 05:02:53;;;;;;;4.07;2.47;;;10.50;99.90;;;;;;4843213;29;20496;-80
2023/02/03 05:05:21;;;;;;;6.53;2.40;;;10.40;99.90;;;;;;4842242;29;20569;-79
2023/02/03 05:07:47;;;;;;;4.07;2.27;;;10.50;99.90;;;;;;4858050;29;20469;-80
2023/02/03 05:10:14;;;;;;;4.90;2.17;;;10.50;99.90;;;;;;4842742;29;20456;-79
2023/02/03 05:12:42;;;;;;;4.73;2.30;;;10.50;99.90;;;;;;4839037;29;20545;-78
2023/02/03 05:15:09;;;;;;;8.23;2.80;;;10.50;99.90;;;;;;4842960;29;20461;-78
2023/02/03 05:17:38;;;;;;;3.17;2.10;;;10.50;99.90;;;;;;4843221;29;20477;-80
2023/02/03 05:20:06;;;;;;;3.10;1.93;;;10.50;99.90;;;;;;4847395;29;20476;-80
2023/02/03 05:22:34;;;;;;;7.90;2.60;;;10.50;99.90;;;;;;4861753;29;20496;-81
2023/02/03 05:25:02;;;;;;;2.83;2.30;;;10.50;99.90;;;;;;4845667;29;20632;-80
2023/02/03 05:27:29;;;;;;;4.43;2.03;;;10.40;99.90;;;;;;4859694;29;20462;-79
2023/02/03 05:29:57;;;;;;;5.83;2.17;;;10.50;99.90;;;;;;4858632;29;20465;-79
2023/02/03 05:32:25;;;;;;;4.23;2.03;;;10.50;99.90;;;;;;4847182;29;20484;-78
2023/02/03 05:34:52;;;;;;;4.13;2.43;;;10.40;99.90;;;;;;4864354;29;20508;-78
2023/02/03 05:37:20;;;;;;;4.53;2.50;;;10.40;99.90;;;;;;4849286;29;20484;-80
2023/02/03 05:39:47;;;;;;;4.67;2.33;;;10.50;99.90;;;;;;4849591;29;20516;-81
2023/02/03 05:42:14;;;;;;;6.90;2.60;;;10.50;99.90;;;;;;4848794;29;20489;-80
2023/02/03 05:44:42;;;;;;;6.87;2.10;;;10.50;99.90;;;;;;4849434;29;21455;-81
2023/02/03 05:47:08;;;;;;;4.97;2.27;;;10.50;99.90;;;;;;4850420;29;21030;-80
2023/02/03 05:49:35;;;;;;;3.87;2.37;;;10.50;99.90;;;;;;4872395;29;20465;-80
2023/02/03 05:52:03;;;;;;;3.60;1.90;;;10.40;99.90;;;;;;4862889;29;20497;-79
2023/02/03 05:54:31;;;;;;;6.30;2.50;;;10.50;99.90;;;;;;4854486;29;20495;-79
2023/02/03 05:57:00;;;;;;;6.23;2.13;;;10.40;99.90;;;;;;4865743;29;20468;-80
2023/02/03 05:59:28;;;;;;;2.40;1.73;;;10.40;99.90;;;;;;4850994;29;20500;-79
2023/02/03 06:01:56;;;;;;;7.60;2.50;;;10.50;99.90;;;;;;4848631;29;20636;-80
2023/02/03 06:04:23;;;;;;;5.70;1.40;;;10.50;99.90;;;;;;4848912;29;20480;-81
2023/02/03 06:06:50;;;;;;;1.90;1.70;;;10.50;99.90;;;;;;4852164;29;20465;-80
2023/02/03 06:09:17;;;;;;;4.13;1.90;;;10.50;99.90;;;;;;4848560;29;20493;-80
2023/02/03 06:11:45;;;;;;;4.40;1.97;;;10.40;99.90;;;;;;4850693;29;20530;-79
2023/02/03 06:14:13;;;;;;;3.27;1.80;;;10.50;99.90;;;;;;4849332;29;20572;-80
2023/02/03 06:16:40;;;;;;;4.73;1.60;;;10.50;99.90;;;;;;4862512;29;20460;-80
2023/02/03 06:19:07;;;;;;;3.47;2.00;;;10.50;99.90;;;;;;4862980;29;20512;-79
2023/02/03 06:21:34;;;;;;;5.73;1.70;;;10.50;99.90;;;;;;4848909;29;20468;-80
2023/02/03 06:24:01;;;;;;;1.90;1.47;;;10.40;99.90;;;;;;4864488;29;20485;-79
2023/02/03 06:26:28;;;;;;;4.47;1.77;;;10.50;99.90;;;;;;4862016;29;20461;-80
2023/02/03 06:28:56;;;;;;;7.30;2.17;;;10.50;99.90;;;;;;4844684;29;20469;-79
2023/02/03 06:31:23;;;;;;;5.80;1.70;;;10.50;99.90;;;;;;4847355;29;20509;-79
2023/02/03 06:33:50;;;;;;;4.37;2.00;;;10.50;99.90;;;;;;4848438;29;20502;-79
2023/02/03 06:36:18;;;;;;;3.60;1.83;;;10.50;99.90;;;;;;4861922;29;20477;-80
2023/02/03 06:38:45;;;;;;;2.73;1.90;;;10.50;99.90;;;;;;4861683;29;20533;-80
2023/02/03 06:41:12;;;;;;;5.47;1.87;;;10.50;99.90;;;;;;4862927;29;20554;-80
2023/02/03 06:43:40;;;;;;;3.10;2.00;;;10.50;99.90;;;;;;4846999;29;20504;-80
2023/02/03 06:46:06;;;;;;;3.30;1.83;;;10.50;99.90;;;;;;4851076;29;20472;-80
2023/02/03 06:48:33;;;;;;;4.57;1.63;;;10.50;99.90;;;;;;4857973;29;20473;-82
2023/02/03 06:51:00;;;;;;;1.60;1.00;;;10.50;99.90;;;;;;4870247;29;20656;-79
2023/02/03 06:53:27;;;;;;;4.63;2.03;;;10.50;99.90;;;;;;4860423;29;20476;-81
2023/02/03 06:55:56;;;;;;;4.30;2.13;;;10.50;99.90;;;;;;4852462;29;20686;-82
2023/02/03 06:58:23;;;;;;;4.60;1.93;;;10.50;99.90;;;;;;4863045;29;20480;-79
2023/02/03 07:00:54;;;;;;;4.57;2.17;;;10.50;99.90;;;;;;4846773;29;20462;-80
2023/02/03 07:03:21;;;;;;;6.37;1.57;;;10.50;99.90;;;;;;4847971;29;20481;-81
2023/02/03 07:05:48;;;;;;;5.93;1.83;;;10.50;99.90;;;;;;4848374;29;20488;-81
2023/02/03 07:08:15;;;;;;;2.43;1.60;;;10.50;99.90;;;;;;4862250;29;20469;-80
2023/02/03 07:10:43;;;;;;;5.67;2.33;;;10.60;99.90;;;;;;4860903;29;20468;-80
2023/02/03 07:13:10;;;;;;;5.53;1.53;;;10.50;99.90;;;;;;4848234;29;20485;-80
2023/02/03 07:15:38;;;;;;;2.17;1.43;;;10.50;99.90;;;;;;4848375;29;20508;-79
2023/02/03 07:18:05;;;;;;;4.57;2.27;;;10.50;99.90;;;;;;4847012;29;21130;-79
2023/02/03 07:20:32;;;;;;;3.37;1.70;;;10.50;99.90;;;;;;4847491;29;20468;-81
2023/02/03 07:23:01;;;;;;;5.60;1.97;;;10.50;99.90;;;;;;4847209;29;21019;-79
2023/02/03 07:25:28;;;;;;;3.90;1.63;;;10.60;99.90;;;;;;4862611;29;20548;-79
2023/02/03 07:27:54;;;;;;;7.67;1.90;;;10.60;99.90;;;;;;4863604;29;20491;-80
2023/02/03 07:30:21;;;;;;;10.80;2.57;;;10.60;99.90;;;;;;4847398;29;20907;-79
2023/02/03 07:32:50;;;;;;;5.00;1.70;;;10.50;99.90;;;;;;4862789;29;20560;-80
2023/02/03 07:35:18;;;;;;;3.50;1.80;;;10.60;99.90;;;;;;4848384;29;21004;-79
2023/02/03 07:37:45;;;;;;;4.80;2.00;;;10.50;99.90;;;;;;4849845;29;22576;-79
2023/02/03 07:40:13;;;;;;;3.33;1.40;;;10.60;99.90;;;;;;4861657;29;20612;-78
2023/02/03 07:42:45;;;;;;;4.37;1.70;;;10.60;99.90;;;;;;4870348;29;21875;-80
2023/02/03 07:45:15;;;;;;;3.43;1.53;;;10.60;99.90;;;;;;4870846;29;21545;-78
2023/02/03 07:47:43;;;;;;;8.33;2.03;;;10.60;99.90;;;;;;4833001;29;20457;-79
2023/02/03 07:50:11;;;;;;;3.03;1.00;;;10.60;99.90;;;;;;4882865;29;20444;-79
2023/02/03 07:52:39;;;;;;;4.57;1.53;;;10.60;99.90;;;;;;4875490;29;20476;-79
2023/02/03 07:55:07;;;;;;;4.47;1.90;;;10.60;99.90;;;;;;4870721;29;20447;-78
2023/02/03 07:57:35;;;;;;;2.37;1.30;;;10.60;99.90;;;;;;4870033;29;20461;-79
2023/02/03 08:00:03;;;;;;;2.37;0.87;;;10.60;99.90;;;;;;4863403;29;20456;-78
2023/02/03 08:02:31;;;;;;;3.27;1.57;;;10.60;99.90;;;;;;4857408;29;20484;-79
2023/02/03 08:04:58;;;;;;;2.50;0.80;;;10.60;99.90;;;;;;4847433;29;20612;-78
2023/02/03 08:07:25;;;;;;;3.73;0.90;;;10.70;99.90;;;;;;4851617;29;20461;-79
2023/02/03 08:09:52;;;;;;;5.43;1.30;;;10.70;99.90;;;;;;4850026;29;20465;-78
2023/02/03 08:12:19;;;;;;;2.50;1.83;;;10.60;99.90;;;;;;4864433;29;20537;-80
2023/02/03 08:14:46;;;;;;;3.43;1.33;;;10.70;99.90;;;;;;4860321;29;20478;-79
2023/02/03 08:17:13;;;;;;;1.90;1.80;;;10.70;99.90;;;;;;4849190;29;20457;-78
2023/02/03 08:19:40;;;;;;;3.10;1.67;;;10.70;99.90;;;;;;4847353;29;21354;-79
2023/02/03 08:22:14;;;;;;;3.13;1.20;;;10.70;99.90;;;;;;4860630;29;20492;-78
2023/02/03 08:24:44;;;;;;;5.60;1.40;;;10.70;99.90;;;;;;4862812;29;20537;-78
2023/02/03 08:27:18;;;;;;;6.20;1.47;;;10.70;99.90;;;;;;4846398;29;20449;-81
2023/02/03 08:29:45;;;;;;;2.73;1.13;;;10.80;99.90;;;;;;4846485;29;21116;-81
2023/02/03 08:32:18;;;;;;;1.90;1.30;;;10.80;99.90;;;;;;4845574;29;20481;-78
2023/02/03 08:34:45;;;;;;;1.80;0.93;;;10.80;99.90;;;;;;4848848;29;20460;-79
2023/02/03 08:37:14;;;;;;;3.80;1.50;;;10.70;99.90;;;;;;4864789;29;20438;-78
2023/02/03 08:39:41;;;;;;;3.60;1.10;;;10.70;99.90;;;;;;4866483;29;20486;-78
2023/02/03 08:42:08;;;;;;;1.37;1.27;;;10.70;99.90;;;;;;4877647;29;20504;-78
2023/02/03 08:44:35;;;;;;;6.77;1.90;;;10.70;99.90;;;;;;4853018;29;21065;-80
2023/02/03 08:47:02;;;;;;;2.30;1.07;;;10.80;99.90;;;;;;4847129;29;20930;-80
2023/02/03 08:49:29;;;;;;;4.60;1.20;;;10.80;99.90;;;;;;4844034;29;20541;-79
2023/02/03 08:51:57;;;;;;;5.20;1.30;;;10.70;99.90;;;;;;4844269;29;20489;-78
2023/02/03 08:54:25;;;;;;;3.00;1.50;;;10.70;99.90;;;;;;4842172;29;20907;-79
2023/02/03 08:56:52;;;;;;;1.90;1.27;;;10.70;99.90;;;;;;4860622;29;21451;-80
2023/02/03 08:59:22;;;;;;;2.70;1.17;;;10.70;99.90;;;;;;4823618;29;20541;-80
2023/02/03 09:01:49;;;;;;;3.00;1.90;;;10.70;99.90;;;;;;4861148;29;21013;-80
2023/02/03 09:04:18;;;;;;;3.63;1.20;;;10.70;99.90;;;;;;4843277;29;20987;-79
2023/02/03 09:06:48;;;;;;;2.73;1.60;;;10.70;99.90;;;;;;4861575;29;20572;-79
2023/02/03 09:09:15;;;;;;;1.57;1.10;;;10.70;99.90;;;;;;4851028;29;20458;-80
2023/02/03 09:11:42;;;;;;;3.67;1.60;;;10.70;99.90;;;;;;4849844;29;20477;-79
2023/02/03 09:14:10;;;;;;;3.10;1.77;;;10.70;99.90;;;;;;4846497;29;22073;-80
2023/02/03 09:16:38;;;;;;;3.03;1.50;;;10.70;99.90;;;;;;4844028;29;20584;-79
2023/02/03 09:19:05;;;;;;;2.80;1.40;;;10.80;99.90;;;;;;4847454;29;20810;-79
2023/02/03 09:21:33;;;;;;;7.00;1.30;;;10.70;99.90;;;;;;4846373;29;20520;-79
2023/02/03 09:24:03;;;;;;;2.40;1.37;;;10.70;99.90;;;;;;4861695;29;20472;-79
2023/02/03 09:26:31;;;;;;;3.37;1.90;;;10.70;99.90;;;;;;4846784;29;21077;-80
2023/02/03 09:28:57;;;;;;;4.43;1.30;;;10.70;99.90;;;;;;4847807;29;20740;-79
2023/02/03 09:31:24;;;;;;;2.70;1.50;;;10.70;99.90;;;;;;4850067;29;20454;-79
2023/02/03 09:33:51;;;;;;;5.27;1.83;;;10.70;99.90;;;;;;4848999;29;20569;-80
2023/02/03 09:36:17;;;;;;;4.00;2.23;;;10.70;99.90;;;;;;4853199;29;20529;-78
2023/02/03 09:38:44;;;;;;;3.17;2.33;;;10.70;99.90;;;;;;4855646;29;20479;-79
2023/02/03 09:41:17;;;;;;;1.80;1.30;;;10.60;99.90;;;;;;4856531;29;20469;-81
2023/02/03 09:43:53;;;;;;;4.53;1.83;;;10.70;99.90;;;;;;4843908;29;20457;-79
2023/02/03 09:46:26;;;;;;;1.67;1.57;;;10.70;99.90;;;;;;4844893;29;20496;-79
2023/02/03 09:49:10;;;;;;;1.73;1.50;;;10.70;99.90;;;;;;4844606;29;20565;-79
2023/02/03 09:51:48;;;;;;;2.40;1.23;;;10.60;99.90;;;;;;4860693;29;20465;-78
2023/02/03 09:54:20;;;;;;;15.97;2.33;;;10.70;99.90;;;;;;4845897;29;20469;-79
2023/02/03 09:56:52;;;;;;;5.30;1.97;;;10.70;99.90;;;;;;4845441;29;20529;-79
2023/02/03 09:59:18;;;;;;;3.73;1.50;;;10.70;99.90;;;;;;4848964;29;20556;-79
2023/02/03 10:01:56;;;;;;;4.90;1.93;;;10.70;99.90;;;;;;4845617;29;20555;-77
2023/02/03 10:04:38;;;;;;;5.43;2.03;;;10.70;99.90;;;;;;4845531;29;22362;-79
2023/02/03 10:07:19;;;;;;;3.87;2.03;;;10.70;99.90;;;;;;4856536;29;20464;-79
2023/02/03 10:09:51;;;;;;;4.87;1.77;;;10.70;99.90;;;;;;4849504;29;20469;-81
2023/02/03 10:12:42;;;;;;;32.73;3.80;;;10.70;99.90;;;;;;4845203;29;20476;-79
2023/02/03 10:15:31;;;;;;;2.50;1.73;;;10.70;99.90;;;;;;4846439;29;20835;-78
2023/02/03 10:18:08;;;;;;;1.77;1.63;;;10.70;99.90;;;;;;4851442;29;20488;-78
2023/02/03 10:20:42;;;;;;;2.90;1.97;;;10.70;99.90;;;;;;4844286;29;20465;-79
2023/02/03 10:23:28;;;;;;;3.30;1.77;;;10.70;99.90;;;;;;4850048;29;20496;-79
2023/02/03 10:25:58;;;;;;;3.20;1.90;;;10.70;99.90;;;;;;4846369;29;20489;-81
2023/02/03 10:28:40;;;;;;;2.53;2.30;;;10.60;99.90;;;;;;4845764;29;20464;-78
2023/02/03 10:31:19;;;;;;;4.73;2.60;;;10.60;99.90;;;;;;4844378;29;20499;-80
2023/02/03 10:33:47;;;;;;;2.37;1.90;;;10.60;99.90;;;;;;4847324;29;22639;-79
2023/02/03 10:36:30;;;;;;;2.17;1.97;;;10.60;99.90;;;;;;4847827;29;20952;-78
2023/02/03 10:39:05;;;;;;;2.43;2.23;;;10.60;99.90;;;;;;4859417;29;20564;-78
2023/02/03 10:41:32;;;;;;;2.50;1.90;;;10.60;99.90;;;;;;4848791;29;20568;-79
2023/02/03 10:44:03;;;;;;;3.27;2.40;;;10.60;99.90;;;;;;4847757;29;20975;-79
2023/02/03 10:46:34;;;;;;;2.63;1.90;;;10.60;99.90;;;;;;4849599;29;21128;-79
2023/02/03 10:49:01;;;;;;;3.97;2.00;;;10.50;99.90;;;;;;4846157;29;20549;-79
2023/02/03 10:51:45;;;;;;;3.57;2.20;;;10.60;99.90;;;;;;4847276;29;20490;-80
2023/02/03 10:54:33;;;;;;;4.90;1.97;;;10.50;99.90;;;;;;4848223;29;20465;-79
2023/02/03 10:57:09;;;;;;;3.37;2.57;;;10.50;99.90;;;;;;4846642;29;20468;-78
2023/02/03 10:59:41;;;;;;;4.60;3.10;;;10.50;99.90;;;;;;4847480;29;22151;-80
2023/02/03 11:02:29;;;;;;;2.40;1.90;;;10.50;99.90;;;;;;4862571;29;20846;-79
2023/02/03 11:05:20;;;;;;;2.60;1.93;;;10.50;99.90;;;;;;4849191;29;20553;-78
2023/02/03 11:07:47;;;;;;;2.80;2.17;;;10.50;99.90;;;;;;4847704;29;20461;-79
2023/02/03 11:10:35;;;;;;;4.67;1.93;;;10.50;99.90;;;;;;4862558;29;21315;-81
2023/02/03 11:13:24;;;;;;;2.40;1.90;;;10.50;99.90;;;;;;4847446;29;20489;-79
2023/02/03 11:15:54;;;;;;;2.13;1.93;;;10.50;99.90;;;;;;4849881;29;20478;-79
2023/02/03 11:18:36;;;;;;;1.90;1.80;;;10.50;99.90;;;;;;4859539;29;22035;-78
2023/02/03 11:21:13;;;;;;;3.23;2.93;;;10.50;99.90;;;;;;4852086;29;20545;-79
2023/02/03 11:24:05;;;;;;;3.07;2.17;;;10.50;99.90;;;;;;4850607;29;20538;-79
2023/02/03 11:26:41;;;;;;;2.70;2.50;;;10.50;99.90;;;;;;4848278;29;20488;-79
2023/02/03 11:29:27;;;;;;;2.47;2.37;;;10.50;99.90;;;;;;4845584;29;20468;-79
2023/02/03 11:31:56;;;;;;;3.93;3.40;;;10.50;99.90;;;;;;4863917;29;20862;-81
2023/02/03 11:34:30;;;;;;;2.40;2.20;;;10.50;99.90;;;;;;4847481;29;20497;-81
2023/02/03 11:36:57;;;;;;;4.27;2.93;;;10.50;99.90;;;;;;4845355;29;20505;-80
2023/02/03 11:39:29;;;;;;;3.67;3.20;;;10.60;99.90;;;;;;4856497;29;20478;-80
2023/02/03 11:41:59;;;;;;;6.20;3.40;;;10.50;99.90;;;;;;4858589;29;20520;-78
2023/02/03 11:44:32;;;;;;;5.43;3.37;;;10.60;99.90;;;;;;4845454;29;20470;-78
2023/02/03 11:47:13;;;;;;;4.57;3.20;;;10.50;99.90;;;;;;4859844;29;20777;-78
2023/02/03 11:50:09;;;;;;;3.57;3.27;;;10.60;99.90;;;;;;4861134;29;20473;-81
2023/02/03 11:53:04;;;;;;;4.13;3.73;;;10.60;99.90;;;;;;4849370;29;20469;-79
2023/02/03 11:55:36;;;;;;;4.70;3.77;;;10.60;99.90;;;;;;4860511;29;20553;-79
2023/02/03 11:58:12;;;;;;;4.70;4.30;;;10.60;99.90;;;;;;4849830;29;21006;-78
2023/02/03 12:00:57;;;;;;;3.83;3.53;;;10.60;99.90;;;;;;4797900;29;20465;-78
2023/02/03 12:03:51;;;;;;;8.03;3.83;;;10.70;99.90;;;;;;4851118;29;20592;-81
2023/02/03 12:06:32;;;;;;;4.33;3.67;;;10.70;99.90;;;;;;4861757;29;20493;-81
2023/02/03 12:09:28;;;;;;;4.70;4.20;;;10.70;99.90;;;;;;4846788;29;20456;-80
2023/02/03 12:12:26;;;;;;;4.57;3.80;;;10.70;99.90;;;;;;4858852;29;20489;-80
2023/02/03 12:15:12;;;;;;;6.90;4.07;;;10.70;99.90;;;;;;4859550;29;20455;-81
2023/02/03 12:17:55;;;;;;;5.17;4.67;;;10.70;99.90;;;;;;4850131;29;20551;-81
2023/02/03 12:20:36;;;;;;;7.33;4.83;;;10.80;99.90;;;;;;4851353;29;20521;-83
2023/02/03 12:23:32;;;;;;;8.40;4.80;;;10.80;99.90;;;;;;4850531;29;20496;-81
2023/02/03 12:26:37;;;;;;;5.80;5.20;;;10.80;99.90;;;;;;4851907;29;20497;-82
2023/02/03 12:29:13;;;;;;;6.53;4.70;;;10.90;99.90;;;;;;4849376;29;20508;-81
2023/02/03 12:31:46;;;;;;;5.57;4.70;;;10.90;99.90;;;;;;4857052;29;20481;-81
2023/02/03 12:34:37;;;;;;;11.27;5.87;;;10.90;99.90;;;;;;4858150;29;20461;-82
2023/02/03 12:37:05;;;;;;;9.00;5.60;;;10.90;99.90;;;;;;4864406;29;20581;-81
2023/02/03 12:39:38;;;;;;;6.30;5.47;;;10.90;99.90;;;;;;4862474;29;20476;-82
2023/02/03 12:42:13;;;;;;;6.37;5.00;;;10.90;99.90;;;;;;4849585;29;20489;-80
2023/02/03 12:44:51;;;;;;;7.80;5.40;;;10.90;99.90;;;;;;4847002;29;20532;-81
2023/02/03 12:47:31;;;;;;;5.40;4.90;;;11.00;99.90;;;;;;4865816;29;20465;-80
2023/02/03 12:50:13;;;;;;;8.37;5.40;;;10.90;99.90;;;;;;4855455;29;20541;-80
2023/02/03 12:52:48;;;;;;;8.50;5.90;;;11.00;99.90;;;;;;4849146;29;20485;-80
2023/02/03 12:55:22;;;;;;;6.93;6.17;;;11.00;99.90;;;;;;4864395;29;20471;-80
2023/02/03 12:57:58;;;;;;;7.40;5.70;;;11.00;99.90;;;;;;4847227;29;20479;-82
2023/02/03 13:00:34;;;;;;;6.40;5.67;;;11.00;99.90;;;;;;4846455;29;20507;-79
2023/02/03 13:03:15;;;;;;;8.17;6.70;;;11.00;99.90;;;;;;4849409;29;20537;-81
2023/02/03 13:06:05;;;;;;;6.10;5.40;;;11.00;99.90;;;;;;4845763;29;20491;-81
2023/02/03 13:08:38;;;;;;;7.57;6.53;;;11.00;99.90;;;;;;4848373;29;20479;-79
2023/02/03 13:11:24;;;;;;;6.30;5.67;;;11.00;99.90;;;;;;4846987;29;20571;-80
2023/02/03 13:13:55;;;;;;;5.80;5.20;;;11.00;99.90;;;;;;4856280;29;20466;-80